Time;durP1;ratioP1;P1;durP2;ratioP2;P2;SDS_P1;SDS_P2;PMS_P1;PMS_P2;Temp;Humidity;BMP_temperature;BMP_pressure;BME280_temperature;BME280_humidity;BME280_pressure;Samples;Min_cycle;Max_cycle;Signal;HPM_P1;HPM_P2
2023/06/07 00:01:08;;;;;;;13.52;7.63;;;20.70;99.90;;;;;;5038531;28;20612;-78
2023/06/07 00:03:34;;;;;;;14.50;7.70;;;20.80;99.90;;;;;;5038902;28;20025;-78
2023/06/07 00:06:03;;;;;;;11.30;7.70;;;20.70;99.90;;;;;;5037958;28;20432;-79
2023/06/07 00:08:29;;;;;;;13.02;8.23;;;20.70;99.90;;;;;;5041801;28;20037;-78
2023/06/07 00:10:55;;;;;;;13.65;8.45;;;20.80;99.90;;;;;;5040471;28;20095;-78
2023/06/07 00:13:21;;;;;;;14.80;7.82;;;20.80;99.90;;;;;;5038906;28;20024;-78
2023/06/07 00:15:46;;;;;;;14.45;7.65;;;20.90;99.90;;;;;;5040654;28;20036;-77
2023/06/07 00:18:14;;;;;;;15.25;8.43;;;20.80;99.90;;;;;;5037449;28;20040;-77
2023/06/07 00:20:45;;;;;;;14.13;7.40;;;20.90;99.90;;;;;;5038619;28;20127;-79
2023/06/07 00:23:13;;;;;;;12.40;8.45;;;20.60;99.90;;;;;;5039910;28;20037;-77
2023/06/07 00:25:40;;;;;;;16.88;8.70;;;20.60;99.90;;;;;;5039468;28;20031;-76
2023/06/07 00:28:06;;;;;;;10.52;7.47;;;20.40;99.90;;;;;;5038379;28;20491;-77
2023/06/07 00:30:32;;;;;;;14.48;8.52;;;20.50;99.90;;;;;;5038792;28;20101;-77
2023/06/07 00:32:57;;;;;;;14.93;8.63;;;20.50;99.90;;;;;;5038343;28;20112;-77
2023/06/07 00:35:23;;;;;;;12.95;7.65;;;20.40;99.90;;;;;;5035589;28;20440;-77
2023/06/07 00:37:48;;;;;;;12.55;8.50;;;20.40;99.90;;;;;;5037827;28;20582;-77
2023/06/07 00:40:14;;;;;;;12.50;7.80;;;20.40;99.90;;;;;;5036366;28;20040;-78
2023/06/07 00:42:40;;;;;;;12.23;6.80;;;20.30;99.90;;;;;;5040716;28;20104;-77
2023/06/07 00:45:06;;;;;;;13.88;7.28;;;20.30;99.90;;;;;;5038840;28;20060;-80
2023/06/07 00:47:35;;;;;;;15.65;8.60;;;20.20;99.90;;;;;;5037212;28;20029;-77
2023/06/07 00:50:00;;;;;;;13.82;8.20;;;20.20;99.90;;;;;;5044023;28;20487;-78
2023/06/07 00:52:26;;;;;;;15.45;8.05;;;20.30;99.90;;;;;;5058211;28;20107;-78
2023/06/07 00:54:52;;;;;;;13.68;7.75;;;20.10;99.90;;;;;;5057672;28;20036;-78
2023/06/07 00:57:18;;;;;;;11.65;6.80;;;20.20;99.90;;;;;;5053462;28;20033;-78
2023/06/07 00:59:45;;;;;;;13.75;8.60;;;20.20;99.90;;;;;;5055655;28;20033;-77
2023/06/07 01:02:14;;;;;;;15.98;8.52;;;20.20;99.90;;;;;;5046632;28;20489;-79
2023/06/07 01:04:42;;;;;;;15.05;8.35;;;20.20;99.90;;;;;;5061070;28;20107;-78
2023/06/07 01:07:08;;;;;;;17.05;8.52;;;20.20;99.90;;;;;;5056731;28;20524;-78
2023/06/07 01:09:35;;;;;;;14.90;8.07;;;20.10;99.90;;;;;;5053497;28;20104;-77
2023/06/07 01:12:03;;;;;;;12.30;8.07;;;20.00;99.90;;;;;;5059248;28;20024;-76
2023/06/07 01:14:31;;;;;;;20.45;9.05;;;20.00;99.90;;;;;;5050443;28;20120;-78
2023/06/07 01:16:58;;;;;;;11.80;8.05;;;20.10;99.90;;;;;;5053164;28;20016;-78
2023/06/07 01:19:29;;;;;;;14.05;7.38;;;20.10;99.90;;;;;;5052947;28;20104;-78
2023/06/07 01:22:07;;;;;;;14.15;8.73;;;20.00;99.90;;;;;;5047732;28;20030;-78
2023/06/07 01:24:35;;;;;;;14.65;7.88;;;20.00;99.90;;;;;;5063393;28;20072;-78
2023/06/07 01:27:03;;;;;;;13.02;8.30;;;19.90;99.90;;;;;;5049554;28;20091;-78
2023/06/07 01:29:30;;;;;;;16.38;7.60;;;20.00;99.90;;;;;;5058336;28;20494;-79
2023/06/07 01:31:58;;;;;;;12.57;7.55;;;20.00;99.90;;;;;;5045766;28;20017;-77
2023/06/07 01:34:25;;;;;;;14.85;7.38;;;20.00;99.90;;;;;;5059946;28;20020;-78
2023/06/07 01:36:53;;;;;;;15.85;8.48;;;19.80;99.90;;;;;;5057437;28;20032;-78
2023/06/07 01:39:20;;;;;;;11.43;7.65;;;19.80;99.90;;;;;;5049689;28;20088;-77
2023/06/07 01:41:49;;;;;;;13.43;7.85;;;19.80;99.90;;;;;;5057029;28;20025;-78
2023/06/07 01:44:15;;;;;;;11.65;7.63;;;19.80;99.90;;;;;;5046309;28;20025;-78
2023/06/07 01:46:42;;;;;;;15.48;7.88;;;19.80;99.90;;;;;;5056251;28;20033;-77
2023/06/07 01:49:08;;;;;;;14.73;8.80;;;19.70;99.90;;;;;;5046609;28;20048;-78
2023/06/07 01:51:33;;;;;;;16.25;8.50;;;19.60;99.90;;;;;;5060041;28;20469;-79
2023/06/07 01:54:00;;;;;;;13.23;7.78;;;19.60;99.90;;;;;;5046164;28;20037;-77
2023/06/07 01:56:29;;;;;;;19.15;7.53;;;19.60;99.90;;;;;;5059293;28;20149;-77
2023/06/07 01:59:07;;;;;;;12.35;8.13;;;19.70;99.90;;;;;;5049973;28;20485;-78
2023/06/07 02:02:04;;;;;;;13.38;7.95;;;19.60;99.90;;;;;;5058088;28;20033;-79
2023/06/07 02:04:32;;;;;;;15.13;7.95;;;19.40;99.90;;;;;;5048528;28;20036;-79
2023/06/07 02:07:03;;;;;;;14.45;8.60;;;19.30;99.90;;;;;;5050866;28;20017;-78
2023/06/07 02:09:30;;;;;;;15.18;8.80;;;19.40;99.90;;;;;;5055496;28;20107;-78
2023/06/07 02:11:56;;;;;;;14.20;8.50;;;19.40;99.90;;;;;;5056250;28;20028;-76
2023/06/07 02:14:22;;;;;;;14.93;9.00;;;19.40;99.90;;;;;;5051723;28;20029;-77
2023/06/07 02:16:48;;;;;;;15.48;9.40;;;19.40;99.90;;;;;;5054935;28;20025;-77
2023/06/07 02:19:16;;;;;;;14.07;8.80;;;19.50;99.90;;;;;;5055105;28;20082;-77
2023/06/07 02:21:42;;;;;;;17.40;8.70;;;19.50;99.90;;;;;;5053045;28;20049;-77
2023/06/07 02:24:07;;;;;;;14.35;9.02;;;19.50;99.90;;;;;;5051443;28;20118;-77
2023/06/07 02:26:33;;;;;;;18.98;9.77;;;19.50;99.90;;;;;;5059811;28;20453;-77
2023/06/07 02:29:00;;;;;;;13.55;9.63;;;19.30;99.90;;;;;;5049218;28;20094;-76
2023/06/07 02:31:25;;;;;;;13.88;8.85;;;19.40;99.90;;;;;;5060236;28;20104;-78
2023/06/07 02:33:51;;;;;;;17.08;9.77;;;19.40;99.90;;;;;;5054199;28;20097;-76
2023/06/07 02:36:25;;;;;;;14.32;8.85;;;19.40;99.90;;;;;;5051060;28;20026;-78
2023/06/07 02:38:51;;;;;;;20.10;10.07;;;19.40;99.90;;;;;;5055846;28;20125;-77
2023/06/07 02:41:17;;;;;;;16.08;9.75;;;19.20;99.90;;;;;;5051091;28;20028;-77
2023/06/07 02:43:43;;;;;;;15.80;8.57;;;19.20;99.90;;;;;;5056084;28;20477;-78
2023/06/07 02:46:11;;;;;;;16.33;9.43;;;19.20;99.90;;;;;;5051209;28;20029;-78
2023/06/07 02:48:37;;;;;;;16.15;8.68;;;19.20;99.90;;;;;;5056811;28;20032;-79
2023/06/07 02:51:03;;;;;;;16.98;9.63;;;19.10;99.90;;;;;;5052600;28;20024;-77
2023/06/07 02:53:30;;;;;;;17.10;9.77;;;19.00;99.90;;;;;;5062422;28;20025;-78
2023/06/07 02:55:56;;;;;;;15.85;10.18;;;18.90;99.90;;;;;;5056868;28;20075;-78
2023/06/07 02:58:22;;;;;;;18.40;9.98;;;18.90;99.90;;;;;;5055026;28;20044;-78
2023/06/07 03:00:49;;;;;;;19.30;10.55;;;18.90;99.90;;;;;;5050323;28;20017;-78
2023/06/07 03:03:17;;;;;;;15.38;10.13;;;18.90;99.90;;;;;;5054890;28;20013;-78
2023/06/07 03:05:46;;;;;;;16.00;10.20;;;18.90;99.90;;;;;;5061217;28;20029;-78
2023/06/07 03:08:12;;;;;;;14.02;9.45;;;18.90;99.90;;;;;;5050784;28;20100;-77
2023/06/07 03:10:38;;;;;;;15.85;10.43;;;18.90;99.90;;;;;;5060757;28;20086;-78
2023/06/07 03:13:04;;;;;;;17.33;10.65;;;18.80;99.90;;;;;;5048841;28;20035;-78
2023/06/07 03:15:30;;;;;;;15.93;9.63;;;18.80;99.90;;;;;;5052171;28;20074;-78
2023/06/07 03:17:55;;;;;;;16.35;9.70;;;18.60;99.90;;;;;;5054993;28;20065;-78
2023/06/07 03:20:21;;;;;;;17.85;10.98;;;18.70;99.90;;;;;;5055095;28;20021;-77
2023/06/07 03:22:47;;;;;;;14.48;9.80;;;18.70;99.90;;;;;;5062220;28;20107;-78
2023/06/07 03:25:13;;;;;;;14.43;9.52;;;18.70;99.90;;;;;;5057951;28;20021;-77
2023/06/07 03:27:39;;;;;;;18.50;9.82;;;18.70;99.90;;;;;;5053977;28;20050;-78
2023/06/07 03:30:06;;;;;;;19.10;10.65;;;18.70;99.90;;;;;;5059105;28;20050;-75
2023/06/07 03:32:32;;;;;;;19.55;11.05;;;18.70;99.90;;;;;;5051624;28;20559;-79
2023/06/07 03:34:58;;;;;;;16.52;10.30;;;18.70;99.90;;;;;;5055882;28;20096;-78
2023/06/07 03:37:23;;;;;;;15.57;10.02;;;18.80;99.90;;;;;;5059804;28;20114;-78
2023/06/07 03:39:49;;;;;;;13.57;10.57;;;18.70;99.90;;;;;;5049340;28;20028;-78
2023/06/07 03:42:15;;;;;;;18.20;10.10;;;18.60;99.90;;;;;;5049225;28;20484;-78
2023/06/07 03:44:40;;;;;;;24.55;11.38;;;18.60;99.90;;;;;;5061476;28;20043;-78
2023/06/07 03:47:06;;;;;;;16.35;10.23;;;18.50;99.90;;;;;;5057527;28;20040;-78
2023/06/07 03:49:32;;;;;;;19.15;12.55;;;18.60;99.90;;;;;;5049972;28;20039;-78
2023/06/07 03:51:57;;;;;;;16.25;10.10;;;18.60;99.90;;;;;;5041815;28;20028;-78
2023/06/07 03:54:23;;;;;;;18.60;11.52;;;18.60;99.90;;;;;;5054564;28;20021;-78
2023/06/07 03:56:48;;;;;;;17.23;11.38;;;18.60;99.90;;;;;;5050344;28;20060;-78
2023/06/07 03:59:15;;;;;;;16.33;10.45;;;18.50;99.90;;;;;;5044933;28;20033;-75
2023/06/07 04:01:41;;;;;;;19.75;10.30;;;18.50;99.90;;;;;;5052287;28;20028;-79
2023/06/07 04:04:09;;;;;;;19.75;11.15;;;18.50;99.90;;;;;;5050741;28;20025;-78
2023/06/07 04:06:36;;;;;;;15.65;10.70;;;18.50;99.90;;;;;;5053943;28;20543;-78
2023/06/07 04:09:02;;;;;;;17.40;10.50;;;18.50;99.90;;;;;;5051146;28;20129;-78
2023/06/07 04:11:28;;;;;;;17.35;10.63;;;18.40;99.90;;;;;;5050237;28;20021;-78
2023/06/07 04:13:54;;;;;;;17.52;11.23;;;18.50;99.90;;;;;;5060120;28;20021;-78
2023/06/07 04:16:19;;;;;;;17.20;10.93;;;18.40;99.90;;;;;;5050020;28;20039;-78
2023/06/07 04:18:45;;;;;;;18.02;11.65;;;18.40;99.90;;;;;;5047642;28;20032;-78
2023/06/07 04:21:12;;;;;;;20.77;11.30;;;18.50;99.90;;;;;;5053827;28;20071;-78
2023/06/07 04:23:38;;;;;;;16.40;11.38;;;18.50;99.90;;;;;;5048214;28;20036;-78
2023/06/07 04:26:06;;;;;;;20.67;11.90;;;18.40;99.90;;;;;;5054720;28;20027;-77
2023/06/07 04:28:32;;;;;;;21.88;10.98;;;18.50;99.90;;;;;;5055171;28;20083;-78
2023/06/07 04:30:58;;;;;;;18.63;11.10;;;18.50;99.90;;;;;;5051791;28;20021;-77
2023/06/07 04:33:24;;;;;;;17.92;11.57;;;18.40;99.90;;;;;;5055750;28;20493;-78
2023/06/07 04:35:50;;;;;;;19.08;11.25;;;18.20;99.90;;;;;;5058825;28;20014;-78
2023/06/07 04:38:20;;;;;;;16.23;11.00;;;18.10;99.90;;;;;;5057435;28;20049;-79
2023/06/07 04:40:49;;;;;;;18.05;12.07;;;18.20;99.90;;;;;;5053425;28;20012;-77
2023/06/07 04:43:18;;;;;;;20.13;12.18;;;18.30;99.90;;;;;;5063798;28;20039;-78
2023/06/07 04:45:46;;;;;;;17.83;11.90;;;18.40;99.90;;;;;;5046432;28;20029;-78
2023/06/07 04:48:13;;;;;;;20.23;11.70;;;18.50;99.90;;;;;;5045507;28;20110;-78
2023/06/07 04:50:41;;;;;;;22.20;11.57;;;18.50;99.90;;;;;;5054506;28;20020;-78
2023/06/07 04:53:08;;;;;;;20.23;12.38;;;18.40;99.90;;;;;;5050574;28;20032;-78
2023/06/07 04:55:35;;;;;;;20.45;12.23;;;18.30;99.90;;;;;;5054197;28;20139;-76
2023/06/07 04:58:05;;;;;;;18.33;11.93;;;18.30;99.90;;;;;;5049427;28;20029;-77
2023/06/07 05:00:33;;;;;;;14.50;10.73;;;18.40;99.90;;;;;;5052615;28;20031;-78
2023/06/07 05:03:06;;;;;;;16.77;10.73;;;18.40;99.90;;;;;;5062103;28;20039;-77
2023/06/07 05:05:36;;;;;;;18.50;11.55;;;18.40;99.90;;;;;;5046506;28;20107;-77
2023/06/07 05:08:02;;;;;;;19.50;10.75;;;18.30;99.90;;;;;;5049214;28;20052;-78
2023/06/07 05:10:28;;;;;;;23.75;12.73;;;18.20;99.90;;;;;;5059020;28;20056;-78
2023/06/07 05:12:54;;;;;;;18.58;11.52;;;18.30;99.90;;;;;;5057582;28;20024;-78
2023/06/07 05:15:21;;;;;;;20.73;11.60;;;18.10;99.90;;;;;;5047006;28;20108;-77
2023/06/07 05:17:48;;;;;;;21.42;11.30;;;18.20;99.90;;;;;;5052107;28;20078;-76
2023/06/07 05:20:15;;;;;;;17.02;11.68;;;18.00;99.90;;;;;;5054972;28;20472;-77
2023/06/07 05:22:41;;;;;;;20.25;12.30;;;17.80;99.90;;;;;;5052784;28;20039;-77
2023/06/07 05:25:08;;;;;;;20.63;13.27;;;17.70;99.90;;;;;;5053020;28;20026;-77
2023/06/07 05:27:36;;;;;;;17.45;12.23;;;17.60;99.90;;;;;;5057800;28;20079;-77
2023/06/07 05:30:04;;;;;;;18.70;11.13;;;17.70;99.90;;;;;;5052606;28;20897;-77
2023/06/07 05:32:30;;;;;;;19.13;11.30;;;17.90;99.90;;;;;;5051522;28;20049;-76
2023/06/07 05:34:57;;;;;;;22.73;11.65;;;18.00;99.90;;;;;;5065052;28;20025;-76
2023/06/07 05:37:25;;;;;;;17.83;12.00;;;18.10;99.90;;;;;;5056719;28;20037;-78
2023/06/07 05:39:50;;;;;;;23.00;11.85;;;18.20;99.90;;;;;;5052682;28;20029;-77
2023/06/07 05:42:16;;;;;;;17.33;11.20;;;18.10;99.90;;;;;;5054145;28;20040;-77
2023/06/07 05:44:45;;;;;;;22.58;11.27;;;18.10;99.90;;;;;;5064222;28;20404;-77
2023/06/07 05:47:10;;;;;;;18.55;11.80;;;18.20;99.90;;;;;;5048745;28;20021;-77
2023/06/07 05:49:36;;;;;;;18.05;11.57;;;18.20;99.90;;;;;;5056792;28;20036;-78
2023/06/07 05:52:02;;;;;;;19.38;12.20;;;18.10;99.90;;;;;;5045043;28;20031;-77
2023/06/07 05:54:27;;;;;;;18.10;11.68;;;18.20;99.90;;;;;;5048947;28;20029;-77
2023/06/07 05:56:53;;;;;;;25.27;13.48;;;18.30;99.90;;;;;;5050553;28;20021;-77
2023/06/07 05:59:19;;;;;;;18.73;11.23;;;18.30;99.90;;;;;;5057762;28;20081;-77
2023/06/07 06:01:45;;;;;;;22.42;11.70;;;18.20;99.90;;;;;;5059930;28;20028;-77
2023/06/07 06:04:11;;;;;;;18.02;10.93;;;18.00;99.90;;;;;;5054495;28;20034;-78
2023/06/07 06:06:38;;;;;;;19.50;11.02;;;18.00;99.90;;;;;;5054143;28;20475;-77
2023/06/07 06:09:04;;;;;;;23.25;13.50;;;17.90;99.90;;;;;;5057685;28;20024;-75
2023/06/07 06:11:30;;;;;;;18.98;12.77;;;18.00;99.90;;;;;;5052124;28;20523;-76
2023/06/07 06:13:56;;;;;;;21.38;12.70;;;17.90;99.90;;;;;;5060743;28;20497;-78
2023/06/07 06:16:22;;;;;;;18.02;12.95;;;18.00;99.90;;;;;;5057163;28;20055;-76
2023/06/07 06:18:47;;;;;;;23.90;12.38;;;18.10;99.90;;;;;;5053790;28;20047;-76
2023/06/07 06:21:13;;;;;;;24.20;14.38;;;18.10;99.90;;;;;;5057963;28;20092;-77
2023/06/07 06:23:39;;;;;;;18.48;12.80;;;17.90;99.90;;;;;;5052224;28;20037;-78
2023/06/07 06:26:05;;;;;;;24.13;12.35;;;18.00;99.90;;;;;;5052621;28;20075;-77
2023/06/07 06:28:30;;;;;;;17.00;11.90;;;18.10;99.90;;;;;;5047508;28;20497;-77
2023/06/07 06:30:56;;;;;;;19.15;13.30;;;18.20;99.90;;;;;;5053918;28;20025;-78
2023/06/07 06:33:21;;;;;;;24.33;13.38;;;18.30;99.90;;;;;;5053294;28;20033;-78
2023/06/07 06:35:47;;;;;;;22.77;13.80;;;18.50;99.90;;;;;;5047814;28;20022;-77
2023/06/07 06:38:13;;;;;;;21.52;12.88;;;18.50;99.90;;;;;;5058327;28;20077;-77
2023/06/07 06:40:39;;;;;;;26.02;13.38;;;18.50;99.90;;;;;;5050499;28;20020;-77
2023/06/07 06:43:05;;;;;;;23.58;12.90;;;18.50;99.90;;;;;;5049296;28;20032;-77
2023/06/07 06:45:31;;;;;;;20.15;12.93;;;18.50;99.90;;;;;;5058566;28;20040;-77
2023/06/07 06:47:58;;;;;;;21.42;13.40;;;18.70;99.90;;;;;;5050710;28;20362;-77
2023/06/07 06:50:24;;;;;;;22.80;12.48;;;18.70;99.90;;;;;;5058494;28;20017;-77
2023/06/07 06:52:50;;;;;;;19.50;12.50;;;18.60;99.90;;;;;;5055563;28;20079;-76
2023/06/07 06:55:17;;;;;;;19.20;13.32;;;18.40;99.90;;;;;;5056866;28;20021;-78
2023/06/07 06:57:43;;;;;;;17.00;12.40;;;18.60;99.90;;;;;;5051492;28;20087;-77
2023/06/07 07:00:09;;;;;;;23.45;13.88;;;18.90;99.90;;;;;;5058504;28;20027;-77
2023/06/07 07:02:35;;;;;;;22.33;12.65;;;19.00;99.90;;;;;;5050466;28;20022;-77
2023/06/07 07:05:03;;;;;;;19.00;12.45;;;19.20;99.90;;;;;;5055548;28;20025;-77
2023/06/07 07:07:29;;;;;;;22.05;13.18;;;19.40;99.90;;;;;;5049506;28;20033;-76
2023/06/07 07:09:55;;;;;;;20.13;12.82;;;19.10;99.90;;;;;;5050082;28;20017;-77
2023/06/07 07:12:24;;;;;;;19.13;12.23;;;19.10;99.90;;;;;;5051913;28;20074;-76
2023/06/07 07:14:49;;;;;;;17.10;12.43;;;19.30;99.90;;;;;;5051724;28;20036;-77
2023/06/07 07:17:15;;;;;;;15.73;11.95;;;19.20;99.90;;;;;;5059510;28;20020;-77
2023/06/07 07:19:41;;;;;;;19.35;13.73;;;19.50;99.90;;;;;;5048865;28;20385;-76
2023/06/07 07:22:07;;;;;;;21.73;12.85;;;19.60;99.90;;;;;;5059036;28;20021;-76
2023/06/07 07:24:33;;;;;;;19.40;12.25;;;19.60;99.90;;;;;;5052851;28;20025;-83
2023/06/07 07:26:58;;;;;;;15.23;12.05;;;19.90;99.90;;;;;;5045677;28;20465;-75
2023/06/07 07:29:24;;;;;;;20.85;13.35;;;20.00;99.90;;;;;;5051516;28;20581;-76
2023/06/07 07:31:50;;;;;;;19.40;12.43;;;19.90;99.90;;;;;;5051602;28;20017;-76
2023/06/07 07:34:16;;;;;;;19.33;13.60;;;19.90;99.90;;;;;;5064319;28;20119;-77
2023/06/07 07:36:44;;;;;;;19.75;14.55;;;19.90;99.90;;;;;;5057854;28;20481;-76
2023/06/07 07:39:11;;;;;;;19.90;13.10;;;19.70;99.90;;;;;;5057048;28;20031;-76
2023/06/07 07:41:37;;;;;;;18.48;12.68;;;19.70;99.90;;;;;;5054348;28;20017;-76
2023/06/07 07:44:04;;;;;;;15.98;12.02;;;19.90;99.90;;;;;;5042520;28;20043;-76
2023/06/07 07:46:30;;;;;;;19.77;12.13;;;20.10;99.90;;;;;;5054142;28;20036;-77
2023/06/07 07:48:56;;;;;;;20.60;12.60;;;20.20;99.90;;;;;;5054817;28;20047;-81
2023/06/07 07:51:21;;;;;;;19.60;11.50;;;19.90;99.90;;;;;;5040922;28;20533;-81
2023/06/07 07:53:47;;;;;;;21.67;12.50;;;19.70;99.90;;;;;;5051504;28;20172;-77
2023/06/07 07:56:13;;;;;;;24.85;11.65;;;19.80;99.90;;;;;;5048366;28;20071;-81
2023/06/07 07:58:39;;;;;;;18.15;11.77;;;20.00;99.90;;;;;;5054368;28;20123;-81
2023/06/07 08:01:05;;;;;;;21.92;11.85;;;20.10;99.90;;;;;;5050227;28;20116;-75
2023/06/07 08:03:30;;;;;;;16.67;11.43;;;20.10;99.90;;;;;;5050180;28;20064;-76
2023/06/07 08:05:56;;;;;;;17.90;12.73;;;20.10;99.90;;;;;;5063568;28;20545;-76
2023/06/07 08:08:22;;;;;;;18.70;11.80;;;19.90;99.90;;;;;;5054940;28;20101;-77
2023/06/07 08:10:48;;;;;;;15.38;11.52;;;20.10;99.90;;;;;;5048576;28;20025;-77
2023/06/07 08:13:14;;;;;;;22.73;12.95;;;20.10;99.90;;;;;;5048198;28;20033;-76
2023/06/07 08:15:40;;;;;;;18.00;13.05;;;20.00;99.90;;;;;;5054991;28;20129;-77
2023/06/07 08:18:07;;;;;;;20.40;12.95;;;20.10;99.90;;;;;;5048919;28;20099;-78
2023/06/07 08:20:33;;;;;;;24.55;12.70;;;20.10;99.90;;;;;;5050748;28;20025;-77
2023/06/07 08:22:58;;;;;;;20.85;12.35;;;20.30;99.90;;;;;;5067770;28;20513;-76
2023/06/07 08:25:24;;;;;;;18.83;12.57;;;20.50;99.90;;;;;;5047537;28;20019;-76
2023/06/07 08:27:50;;;;;;;20.25;12.13;;;20.60;99.90;;;;;;5049495;28;20106;-77
2023/06/07 08:30:16;;;;;;;21.60;10.90;;;20.70;99.90;;;;;;5049390;28;20013;-76
2023/06/07 08:32:45;;;;;;;17.05;11.82;;;20.80;99.90;;;;;;5053756;28;20040;-76
2023/06/07 08:35:11;;;;;;;19.83;11.65;;;20.50;99.90;;;;;;5054115;28;20027;-77
2023/06/07 08:37:37;;;;;;;17.60;10.23;;;20.40;99.90;;;;;;5051125;28;20029;-77
2023/06/07 08:40:07;;;;;;;21.15;11.80;;;20.40;99.90;;;;;;5048893;28;20024;-75
2023/06/07 08:42:34;;;;;;;21.10;11.65;;;20.50;99.90;;;;;;5054694;28;20485;-78
2023/06/07 08:45:00;;;;;;;19.95;12.70;;;20.70;99.90;;;;;;5050720;28;20429;-78
2023/06/07 08:47:29;;;;;;;22.13;12.13;;;20.80;99.90;;;;;;5051166;28;20301;-84
2023/06/07 08:49:57;;;;;;;20.98;11.82;;;21.00;99.90;;;;;;5054299;28;20052;-79
2023/06/07 08:52:24;;;;;;;16.48;10.93;;;21.20;99.90;;;;;;5051490;28;20489;-80
2023/06/07 08:54:52;;;;;;;18.73;11.98;;;21.30;99.90;;;;;;5055893;28;20028;-82
2023/06/07 08:57:18;;;;;;;21.83;12.38;;;21.30;99.90;;;;;;5054530;28;20029;-77
2023/06/07 08:59:45;;;;;;;19.13;11.27;;;21.40;99.90;;;;;;5048876;28;20021;-89
2023/06/07 09:02:15;;;;;;;18.20;11.48;;;21.90;99.90;;;;;;5045625;28;20052;-80
2023/06/07 09:04:42;;;;;;;18.27;11.82;;;22.20;99.90;;;;;;5056161;28;20013;-78
2023/06/07 09:07:08;;;;;;;17.23;10.63;;;22.40;99.90;;;;;;5059021;28;20033;-78
2023/06/07 09:09:40;;;;;;;18.98;11.32;;;22.40;99.90;;;;;;5053549;28;20503;-81
2023/06/07 09:12:10;;;;;;;21.33;11.73;;;22.30;99.90;;;;;;5066973;28;20024;-76
2023/06/07 09:14:36;;;;;;;23.38;11.93;;;22.20;99.90;;;;;;5061295;28;20029;-79
2023/06/07 09:17:02;;;;;;;18.80;11.80;;;22.30;99.90;;;;;;5061202;28;20385;-78
2023/06/07 09:19:42;;;;;;;17.80;11.07;;;22.20;99.90;;;;;;5052028;28;20072;-79
2023/06/07 09:22:10;;;;;;;20.02;10.52;;;22.30;99.90;;;;;;5050207;28;20032;-80
2023/06/07 09:24:37;;;;;;;19.27;10.75;;;22.40;99.90;;;;;;5051367;28;21114;-78
2023/06/07 09:27:04;;;;;;;16.30;11.90;;;22.30;99.90;;;;;;5053184;28;20021;-77
2023/06/07 09:29:38;;;;;;;19.08;11.55;;;22.00;99.90;;;;;;5051694;28;20111;-79
2023/06/07 09:32:21;;;;;;;21.27;11.88;;;22.20;99.90;;;;;;5054149;28;20024;-78
2023/06/07 09:34:47;;;;;;;19.40;11.88;;;22.10;99.90;;;;;;5052852;28;20024;-78
2023/06/07 09:37:14;;;;;;;15.25;10.93;;;22.10;99.90;;;;;;5059430;28;20025;-79
2023/06/07 09:39:40;;;;;;;15.73;10.85;;;22.20;99.90;;;;;;5064478;28;20385;-77
2023/06/07 09:42:17;;;;;;;18.02;11.73;;;22.20;99.90;;;;;;5053246;28;20025;-78
2023/06/07 09:44:43;;;;;;;15.90;12.45;;;22.00;99.90;;;;;;5061117;28;20124;-79
2023/06/07 09:47:21;;;;;;;16.13;11.10;;;21.90;99.90;;;;;;5054567;28;20083;-78
2023/06/07 09:49:47;;;;;;;25.27;13.63;;;22.00;99.90;;;;;;5056727;28;20029;-78
2023/06/07 09:52:14;;;;;;;19.60;11.45;;;22.00;99.90;;;;;;5046733;28;20492;-79
2023/06/07 09:54:44;;;;;;;22.02;12.50;;;22.00;99.90;;;;;;5051759;28;20035;-78
2023/06/07 09:57:31;;;;;;;16.83;11.20;;;21.90;99.90;;;;;;5060147;28;20024;-78
2023/06/07 10:00:25;;;;;;;19.20;10.93;;;22.00;99.90;;;;;;5058974;28;20040;-80
2023/06/07 10:02:50;;;;;;;16.65;11.32;;;22.10;99.90;;;;;;5049048;28;20036;-78
2023/06/07 10:05:17;;;;;;;16.08;10.73;;;22.20;99.90;;;;;;5055499;28;20026;-79
2023/06/07 10:07:44;;;;;;;16.25;10.15;;;22.20;99.90;;;;;;5044424;28;20032;-77
2023/06/07 10:10:11;;;;;;;17.17;11.55;;;22.30;99.90;;;;;;5031488;28;20181;-79
2023/06/07 10:12:40;;;;;;;18.85;11.45;;;22.30;99.90;;;;;;5033734;28;20013;-79
2023/06/07 10:15:11;;;;;;;15.20;10.15;;;22.40;99.90;;;;;;5038165;28;20032;-79
2023/06/07 10:17:54;;;;;;;19.63;11.23;;;22.50;99.90;;;;;;5037045;28;20030;-79
2023/06/07 10:20:26;;;;;;;17.10;10.57;;;22.40;99.90;;;;;;5042339;28;20421;-84
2023/06/07 10:22:58;;;;;;;18.00;11.20;;;22.40;99.90;;;;;;5039563;28;20036;-80
2023/06/07 10:25:27;;;;;;;14.37;10.00;;;22.40;99.90;;;;;;5043212;28;20017;-89
2023/06/07 10:28:36;;;;;;;17.10;12.30;;;22.40;99.90;;;;;;5038737;28;20805;-82
2023/06/07 10:31:08;;;;;;;22.52;13.10;;;22.00;99.90;;;;;;5024711;28;20080;-80
2023/06/07 10:33:34;;;;;;;18.85;12.30;;;21.70;99.90;;;;;;5027599;28;20025;-75
2023/06/07 10:36:00;;;;;;;20.63;12.73;;;21.60;99.90;;;;;;5031245;28;20056;-87
2023/06/07 10:38:33;;;;;;;18.98;12.90;;;21.50;99.90;;;;;;5037699;28;20029;-82
2023/06/07 10:41:01;;;;;;;25.58;13.48;;;21.30;99.90;;;;;;5035769;28;20473;-81
2023/06/07 10:43:29;;;;;;;20.33;12.10;;;21.20;99.90;;;;;;5044169;28;20024;-79
2023/06/07 10:46:22;;;;;;;26.52;13.50;;;21.10;99.90;;;;;;5038326;28;20410;-77
2023/06/07 10:48:49;;;;;;;22.77;12.27;;;21.10;99.90;;;;;;5041471;28;20025;-77
2023/06/07 10:51:15;;;;;;;18.98;12.55;;;21.00;99.90;;;;;;5038734;28;20504;-75
2023/06/07 10:53:57;;;;;;;23.15;13.73;;;21.00;99.90;;;;;;5040800;28;20021;-71
2023/06/07 10:56:27;;;;;;;21.88;13.52;;;21.00;99.90;;;;;;5036671;28;20032;-71
2023/06/07 10:58:53;;;;;;;23.30;14.48;;;21.00;99.90;;;;;;5042605;28;20566;-70
2023/06/07 11:01:24;;;;;;;22.88;14.60;;;21.00;99.90;;;;;;5038792;28;20021;-69
2023/06/07 11:03:50;;;;;;;24.17;14.48;;;20.90;99.90;;;;;;5038943;28;20085;-69
2023/06/07 11:06:16;;;;;;;26.10;14.90;;;21.00;99.90;;;;;;5042262;28;20104;-69
2023/06/07 11:08:43;;;;;;;30.65;16.60;;;21.10;99.90;;;;;;5039346;28;20436;-70
2023/06/07 11:11:39;;;;;;;26.75;16.42;;;20.90;99.90;;;;;;5038725;28;20056;-71
2023/06/07 11:14:05;;;;;;;27.50;17.52;;;20.80;99.90;;;;;;5037584;28;20022;-71
2023/06/07 11:16:31;;;;;;;27.00;18.50;;;20.80;99.90;;;;;;5039014;28;20052;-72
2023/06/07 11:19:04;;;;;;;27.30;17.50;;;20.60;99.90;;;;;;5043131;28;20033;-71
2023/06/07 11:22:05;;;;;;;26.25;17.73;;;20.60;99.90;;;;;;5036354;28;20025;-71
2023/06/07 11:24:32;;;;;;;24.77;17.23;;;20.70;99.90;;;;;;5034555;28;20811;-71
2023/06/07 11:26:58;;;;;;;27.70;17.48;;;20.80;99.90;;;;;;5041792;28;20024;-71
2023/06/07 11:29:24;;;;;;;25.27;18.20;;;21.00;99.90;;;;;;5034194;28;20029;-72
2023/06/07 11:32:00;;;;;;;27.77;16.63;;;21.20;99.90;;;;;;5037630;28;20579;-72
2023/06/07 11:34:27;;;;;;;25.27;16.83;;;21.00;99.90;;;;;;5033355;28;20017;-72
2023/06/07 11:37:10;;;;;;;28.60;17.20;;;20.80;99.90;;;;;;5038086;28;20070;-73
2023/06/07 11:39:36;;;;;;;28.23;19.40;;;21.00;99.90;;;;;;5034885;28;20029;-73
2023/06/07 11:42:02;;;;;;;29.38;16.05;;;20.70;99.90;;;;;;5034566;28;20021;-73
2023/06/07 11:44:28;;;;;;;26.95;17.58;;;20.80;99.90;;;;;;5032286;28;20064;-73
2023/06/07 11:46:55;;;;;;;23.40;15.68;;;20.90;99.90;;;;;;5038325;28;20025;-73
2023/06/07 11:49:23;;;;;;;24.30;15.25;;;21.00;99.90;;;;;;5040598;28;20017;-74
2023/06/07 11:51:49;;;;;;;25.48;17.50;;;21.00;99.90;;;;;;5039780;28;20500;-74
2023/06/07 11:54:15;;;;;;;27.90;18.38;;;21.00;99.90;;;;;;5036549;28;20028;-74
2023/06/07 11:56:44;;;;;;;24.65;17.55;;;21.10;99.90;;;;;;5038008;28;20377;-74
2023/06/07 11:59:10;;;;;;;27.90;17.85;;;21.10;99.90;;;;;;5036865;28;20371;-73
2023/06/07 12:01:39;;;;;;;30.75;18.40;;;21.10;99.90;;;;;;5035618;28;20024;-73
2023/06/07 12:04:06;;;;;;;25.13;17.98;;;20.90;99.90;;;;;;5037602;28;20477;-73
2023/06/07 12:06:33;;;;;;;22.70;17.00;;;21.10;99.90;;;;;;5040306;28;20038;-74
2023/06/07 12:08:59;;;;;;;25.75;16.55;;;21.20;99.90;;;;;;5036527;28;20016;-74
2023/06/07 12:11:25;;;;;;;25.05;16.02;;;21.30;99.90;;;;;;5038391;28;20370;-73
2023/06/07 12:13:54;;;;;;;26.23;17.60;;;21.30;99.90;;;;;;5035608;28;20106;-73
2023/06/07 12:16:23;;;;;;;26.63;18.10;;;21.20;99.90;;;;;;5038965;28;20508;-74
2023/06/07 12:18:49;;;;;;;25.65;16.90;;;21.20;99.90;;;;;;5034413;28;20062;-73
2023/06/07 12:21:18;;;;;;;24.10;16.33;;;21.30;99.90;;;;;;5036772;28;20346;-73
2023/06/07 12:23:50;;;;;;;25.13;16.45;;;21.50;99.90;;;;;;5037983;28;20033;-73
2023/06/07 12:26:20;;;;;;;25.55;17.67;;;21.60;99.90;;;;;;5038812;28;20650;-73
2023/06/07 12:28:48;;;;;;;24.30;16.92;;;21.50;99.90;;;;;;5032633;28;20021;-73
2023/06/07 12:31:17;;;;;;;24.45;17.45;;;21.60;99.90;;;;;;5037592;28;20021;-73